• Join FlightAware (Why Join?)
  • Login
  • US Flag 
05:38AM EDT


 

Airport Tracker/Info


-or-


 

Live Flight TrackerFlight Track Log ✈ SWA1366 ✈ 25-Apr-2014 ✈ KPHX - KSJC

Flight Track Log - Related Links

Times and Time Zones

All times are in EDT time to prevent confusion due to time zone crossing. See the SWA1366 flight status page for this flight to view local times or setup timezone preferences in your user account.

Time Position Orientation Groundspeed Altitude Reporting Facility
EDT Latitude Longitude Course Direction KTS MPH feet Rate Location/Type
01:54PM 33.4333 -111.9833 104° East 186 214 2,000  Level Phoenix TRACON
01:56PM 33.4044 -111.8431 104° East 246 283 6,900 2,340 Climbing Albuquerque Center
01:57PM 33.3408 -111.8153 160° South 255 293 9,500 2,040 Climbing Albuquerque Center
01:58PM 33.3203 -111.8933 253° West 277 319 11,200 2,460 Climbing Albuquerque Center
01:59PM 33.3389 -112.0125 281° West 300 345 14,600 2,700 Climbing Albuquerque Center
02:00PM 33.3531 -112.1169 279° West 318 366 16,800 2,220 Climbing Albuquerque Center
02:01PM 33.3683 -112.2239 280° West 322 371 19,200 1,980 Climbing Albuquerque Center
02:02PM 33.3833 -112.3350 279° West 335 386 21,000 1,980 Climbing Albuquerque Center
02:03PM 33.4006 -112.4483 280° West 343 395 23,400 1,860 Climbing Albuquerque Center
02:04PM 33.4167 -112.5606 280° West 343 395 24,900 1,560 Climbing Albuquerque Center
02:05PM 33.4361 -112.7006 279° West 350 403 26,700 1,500 Climbing Albuquerque Center
02:06PM 33.4517 -112.8178 279° West 353 406 28,000 1,200 Climbing Albuquerque Center
02:07PM 33.4750 -112.9347 283° West 357 411 29,200 960 Climbing Albuquerque Center
02:08PM 33.4981 -113.0569 283° West 371 427 30,100 900 Climbing Albuquerque Center
02:09PM 33.5219 -113.1794 283° West 377 434 31,100 900 Climbing Albuquerque Center
02:10PM 33.5453 -113.3044 283° West 380 437 32,000 1,080 Climbing Albuquerque Center
02:12PM 33.5739 -113.4581 283° West 391 450 33,400 960 Climbing Albuquerque Center
02:13PM 33.5964 -113.5786 283° West 381 438 34,000 240 Climbing Albuquerque Center
02:14PM 33.6208 -113.7033 283° West 376 433 34,000  Level Albuquerque Center
02:15PM 33.6428 -113.8244 282° West 375 432 34,000  Level Albuquerque Center
02:16PM 33.6642 -113.9467 282° West 375 432 34,000  Level Albuquerque Center
02:17PM 33.6872 -114.0669 283° West 374 430 34,000  Level Albuquerque Center
02:18PM 33.7097 -114.1844 283° West 372 428 34,000  Level Los Angeles Center
02:19PM 33.7303 -114.3050 282° West 372 428 34,000  Level Los Angeles Center
02:20PM 33.7522 -114.4258 282° West 372 428 34,000  Level Los Angeles Center
02:21PM 33.7753 -114.5683 281° West 368 423 34,000  Level Los Angeles Center
02:22PM 33.7831 -114.6925 274° West 372 428 34,000  Level Los Angeles Center
02:23PM 33.7878 -114.8158 273° West 375 432 34,000  Level Los Angeles Center
02:24PM 33.7964 -114.9417 275° West 375 432 34,000  Level Los Angeles Center
02:25PM 33.8033 -115.0658 274° West 375 432 34,000  Level Los Angeles Center
02:26PM 33.8306 -115.1900 285° West 381 438 34,000  Level Los Angeles Center
02:27PM 33.8628 -115.3369 285° West 381 438 34,000  Level Los Angeles Center
02:28PM 33.8903 -115.4603 285° West 382 440 34,000  Level Los Angeles Center
02:29PM 33.9167 -115.5842 284° West 382 440 34,000  Level Los Angeles Center
02:30PM 33.9436 -115.7092 285° West 383 441 34,000  Level Los Angeles Center
02:31PM 33.9711 -115.8336 285° West 384 442 34,000 -60 Level Los Angeles Center
02:32PM 34.0022 -115.9825 284° West 384 442 33,900  Descending Los Angeles Center
02:33PM 34.0294 -116.1058 285° West 384 442 34,000  Climbing Los Angeles Center
02:34PM 34.0561 -116.2281 285° West 381 438 34,000  Level Los Angeles Center
02:35PM 34.0817 -116.3492 284° West 379 436 34,000 -60 Level Los Angeles Center
02:36PM 34.1069 -116.4703 284° West 376 433 33,900  Descending Los Angeles Center
02:37PM 34.1369 -116.6153 284° West 378 435 34,000  Climbing Los Angeles Center
02:38PM 34.1625 -116.7375 284° West 378 435 34,000  Level Los Angeles Center
02:39PM 34.1881 -116.8600 284° West 377 434 34,000  Level Los Angeles Center
02:40PM 34.2125 -116.9828 284° West 377 434 34,000  Level Los Angeles Center
02:41PM 34.2381 -117.1050 284° West 377 434 34,000  Level Los Angeles Center
02:42PM 34.2675 -117.2464 284° West 376 433 34,000  Level Los Angeles Center
02:43PM 34.2914 -117.3653 284° West 373 429 34,000  Level Los Angeles Center
02:45PM 34.3147 -117.4847 283° West 372 428 34,000  Level Los Angeles Center
02:46PM 34.3389 -117.6050 284° West 369 425 34,000  Level Los Angeles Center
02:47PM 34.3675 -117.7481 284° West 369 425 34,000  Level Los Angeles Center
02:48PM 34.3864 -117.8492 283° West 359 413 34,000  Level Los Angeles Center
02:49PM 34.4092 -117.9631 284° West 352 405 34,000  Level Los Angeles Center
02:50PM 34.4614 -118.0958 296° West 371 427 34,000  Level Los Angeles Center
02:51PM 34.5147 -118.1917 304° West 375 432 34,000  Level Los Angeles Center
02:52PM 34.5831 -118.3153 304° West 373 429 34,000 -300 Level Los Angeles Center
02:53PM 34.6414 -118.4211 304° West 374 430 33,400 -780 Descending Los Angeles Center
02:54PM 34.7033 -118.5311 304° West 374 430 32,400 -720 Descending Los Angeles Center
02:55PM 34.7578 -118.6300 304° West 374 430 32,000 -240 Descending Los Angeles Center
02:56PM 34.8153 -118.7342 304° West 374 430 32,000  Level Los Angeles Center
02:57PM 34.8822 -118.8572 304° West 368 423 32,000  Level Los Angeles Center
02:58PM 34.9278 -118.9403 304° West 344 396 32,000  Level Los Angeles Center
02:59PM 34.9911 -119.0575 303° West 345 397 32,000  Level Los Angeles Center
03:00PM 35.0472 -119.1581 304° West 354 407 32,000  Level Los Angeles Center
03:01PM 35.1031 -119.2600 304° West 357 411 32,000  Level Los Angeles Center
03:02PM 35.1572 -119.3594 304° West 356 410 32,000  Level Los Angeles Center
03:03PM 35.2117 -119.4603 303° West 355 409 32,000  Level Los Angeles Center
03:04PM 35.2778 -119.5806 304° West 355 409 32,000  Level Los Angeles Center
03:05PM 35.3311 -119.6806 303° West 354 407 32,000  Level Los Angeles Center
03:06PM 35.3839 -119.7808 303° West 353 406 32,000  Level Los Angeles Center
03:07PM 35.4361 -119.8797 303° West 351 404 32,000  Level Los Angeles Center
03:08PM 35.4886 -119.9786 303° West 350 403 32,000  Level Los Angeles Center
03:09PM 35.5508 -120.0956 303° West 349 402 32,000  Level Los Angeles Center
03:10PM 35.6036 -120.1953 303° West 345 397 32,000  Level Los Angeles Center
03:11PM 35.6333 -120.2506 303° West 347 399 32,000  Level Oakland Center
03:12PM 35.6856 -120.3483 303° West 346 398 32,000  Level Oakland Center
03:13PM 35.7547 -120.4436 312° West 370 426 32,000  Level Oakland Center
03:14PM 35.8228 -120.5364 312° West 371 427 32,000  Level Oakland Center
03:15PM 35.8914 -120.6322 311° West 371 427 32,000  Level Oakland Center
03:16PM 35.9614 -120.7264 313° West 371 427 32,000 -60 Level Oakland Center
03:17PM 36.0439 -120.8411 312° West 373 429 31,900  Descending Oakland Center
03:18PM 36.1106 -120.9358 311° West 369 425 32,000 -360 Climbing Oakland Center
03:19PM 36.1778 -121.0294 312° West 367 422 31,200 -1,980 Descending Oakland Center
03:20PM 36.2458 -121.1222 312° West 365 420 28,000 -2,880 Descending Oakland Center
03:21PM 36.3142 -121.2208 311° West 373 429 25,300 -2,520 Descending Oakland Center
03:22PM 36.3811 -121.3136 312° West 367 422 22,900 -2,520 Descending Oakland Center
03:23PM 36.4531 -121.4114 312° West 378 435 20,200 -2,760 Descending Oakland Center
03:24PM 36.5511 -121.4722 334° Northwest 402 463 17,400 -2,880 Descending Oakland Center
03:25PM 36.6861 -121.4975 351° North 407 468 14,400 -2,700 Descending Oakland Center
03:26PM 36.7906 -121.5161 352° North 385 443 11,900 -2,100 Descending Oakland Center
03:27PM 36.8883 -121.5450 347° North 361 415 10,200 -1,380 Descending Oakland Center
03:28PM 36.9569 -121.5903 332° Northwest 288 331 9,100 -1,620 Descending Oakland Center
03:29PM 37.0228 -121.6322 333° Northwest 270 311 6,900 -2,040 Descending Oakland Center
03:30PM 37.0911 -121.6731 335° Northwest 270 311 5,000 -960 Descending Oakland Center
03:31PM 37.1511 -121.7075 335° Northwest 250 288 5,000 -540 Level Oakland Center
03:32PM 37.2003 -121.7522 324° Northwest 230 265 4,000 -1,020 Descending Oakland Center
03:34PM 37.2450 -121.8031 318° Northwest 222 255 3,000 -1,020 Descending Oakland Center
03:35PM 37.2819 -121.8447 318° Northwest 194 223 2,000 -1,080 Descending Oakland Center
03:36PM 37.3258 -121.8922 319° Northwest 181 208 900 -960 Descending Oakland Center
03:37PM 37.3561 -121.9256 319° Northwest 160 184 100 -780 Descending Oakland Center
03:39PM 37.3500 -121.9167 North  Level FlightAware Approximate
03:46PM 37.3627 -121.9291 North  Level Estimated